Terminal Aerodrome Forecast
Issued by NWS

Home | Current Version | Previous Version | Graphics & Text | Print | Product List | Glossary On
Versions: 1 2 3 4 5 6 7 8 9 10 11 12 13 14 15 16
000
FTUS43 KBIS 181100
TAFJMS
TAF
KJMS 181132Z 1812/1912 30009KT P6SM OVC025
     FM181300 27008KT P6SM SCT025 SCT100
     FM181700 22009KT P6SM SCT030 BKN120
     FM182300 30015KT P6SM -SHSN BKN025
     FM190100 32019G29KT P6SM -SHSN OVC025
     FM190500 31018KT P6SM OVC025=

USA.gov is the U.S. government's official web portal to all federal, state and local government web resources and services.